createdAt,value
2016-07-25T06:36:00.528Z,1016.9
2016-07-25T06:37:00.553Z,1016.86
2016-07-25T06:38:00.581Z,1016.89
2016-07-25T06:39:00.607Z,1016.87
2016-07-25T06:40:00.634Z,1016.88
2016-07-25T06:41:00.661Z,1016.95
2016-07-25T06:42:00.689Z,1016.93
2016-07-25T06:43:00.714Z,1016.93
2016-07-25T06:44:00.741Z,1016.9
2016-07-25T06:45:00.769Z,1016.91
2016-07-25T06:46:00.795Z,1016.91
2016-07-25T06:47:00.823Z,1016.95
2016-07-25T06:48:00.849Z,1016.93
2016-07-25T06:49:00.877Z,1016.93
2016-07-25T06:50:00.902Z,1016.93
2016-07-25T06:51:00.930Z,1016.91
2016-07-25T06:52:00.958Z,1016.92
2016-07-25T06:53:00.985Z,1016.88
2016-07-25T06:54:01.010Z,1016.9
2016-07-25T06:55:01.038Z,1016.87
2016-07-25T06:56:01.068Z,1016.87
2016-07-25T06:57:01.092Z,1016.89
2016-07-25T06:58:01.120Z,1016.9
2016-07-25T06:59:01.146Z,1016.91
2016-07-25T07:00:01.174Z,1016.92
2016-07-25T07:01:01.200Z,1016.91
2016-07-25T07:02:01.227Z,1016.92
2016-07-25T07:03:01.254Z,1016.88
2016-07-25T07:04:01.283Z,1016.9
2016-07-25T07:05:01.310Z,1016.9
2016-07-25T07:06:01.336Z,1016.9
2016-07-25T07:07:01.365Z,1016.88
2016-07-25T07:08:01.390Z,1016.89
2016-07-25T07:09:01.417Z,1016.88
2016-07-25T07:10:01.445Z,1016.87
2016-07-25T07:11:01.471Z,1016.88
2016-07-25T07:12:01.498Z,1016.8
2016-07-25T07:13:01.526Z,1016.82
2016-07-25T07:14:01.555Z,1016.83
2016-07-25T07:15:01.581Z,1016.84
2016-07-25T07:16:01.607Z,1016.87
2016-07-25T07:17:01.635Z,1016.86
2016-07-25T07:18:01.662Z,1016.87
2016-07-25T07:19:01.688Z,1016.82
2016-07-25T07:20:01.715Z,1016.84
2016-07-25T07:21:01.742Z,1016.87
2016-07-25T07:22:01.775Z,1016.84
2016-07-25T07:24:01.823Z,1016.85
2016-07-25T07:25:01.851Z,1016.85
2016-07-25T07:26:01.878Z,1016.85
2016-07-25T07:27:01.903Z,1016.85
2016-07-25T07:28:01.931Z,1016.81
2016-07-25T07:29:01.963Z,1016.79
2016-07-25T07:30:01.984Z,1016.79
2016-07-25T07:31:02.013Z,1016.8
2016-07-25T07:32:02.039Z,1016.81
2016-07-25T07:33:02.067Z,1016.82
2016-07-25T07:34:02.092Z,1016.87
2016-07-25T07:35:02.121Z,1016.86
2016-07-25T07:36:02.147Z,1016.9
2016-07-25T07:37:02.176Z,1016.89
2016-07-25T07:38:02.202Z,1016.88
2016-07-25T07:39:02.230Z,1016.85
2016-07-25T07:40:02.258Z,1016.86
2016-07-25T07:41:02.284Z,1016.84
2016-07-25T07:42:02.313Z,1016.86
2016-07-25T07:43:02.340Z,1016.84
2016-07-25T07:44:02.368Z,1016.88
2016-07-25T07:45:02.396Z,1016.91
2016-07-25T07:46:02.431Z,1016.93
2016-07-25T07:47:02.452Z,1016.9
2016-07-25T07:48:02.480Z,1016.9
2016-07-25T07:49:02.509Z,1016.87
2016-07-25T07:50:02.536Z,1016.85
2016-07-25T07:51:02.565Z,1016.82
2016-07-25T07:52:02.593Z,1016.84
2016-07-25T07:53:02.621Z,1016.86
2016-07-25T07:54:02.654Z,1016.87
2016-07-25T07:55:02.678Z,1016.84
2016-07-25T07:56:02.706Z,1016.83
2016-07-25T07:57:02.734Z,1016.85
2016-07-25T07:58:02.764Z,1016.84
2016-07-25T08:00:02.820Z,1016.87
2016-07-25T08:01:02.849Z,1016.86
2016-07-25T08:02:02.877Z,1016.88
2016-07-25T08:04:02.935Z,1016.9
2016-07-25T08:05:02.964Z,1016.88
2016-07-25T08:06:02.992Z,1016.93
2016-07-25T08:07:03.020Z,1016.91
2016-07-25T08:08:03.048Z,1016.9
2016-07-25T08:09:03.077Z,1016.93
2016-07-25T08:10:03.111Z,1016.96
2016-07-25T08:11:03.135Z,1016.96
2016-07-25T08:12:03.164Z,1016.92
2016-07-25T08:13:03.193Z,1016.97
2016-07-25T08:14:03.221Z,1016.92
2016-07-25T08:15:03.250Z,1016.92
2016-07-25T08:16:03.280Z,1016.89
2016-07-25T08:17:03.309Z,1016.86
2016-07-25T08:18:03.337Z,1016.87
2016-07-25T08:19:03.366Z,1016.89
2016-07-25T08:20:03.394Z,1016.9
2016-07-25T08:21:03.423Z,1016.94
2016-07-25T08:22:03.452Z,1016.93
2016-07-25T08:23:03.480Z,1016.89
2016-07-25T08:24:03.517Z,1016.87
2016-07-25T08:25:03.543Z,1016.88
2016-07-25T08:26:03.567Z,1016.86
2016-07-25T08:27:03.596Z,1016.85
2016-07-25T08:28:03.625Z,1016.87
2016-07-25T08:29:03.658Z,1016.84
2016-07-25T08:30:03.683Z,1016.85
2016-07-25T08:31:03.712Z,1016.85
2016-07-25T08:32:03.741Z,1016.86
2016-07-25T08:33:03.775Z,1016.89
2016-07-25T08:34:03.890Z,1016.89
2016-07-25T08:35:03.828Z,1016.92
2016-07-25T08:36:03.857Z,1016.93
2016-07-25T08:37:03.887Z,1016.91
2016-07-25T08:38:03.915Z,1016.95
2016-07-25T08:39:03.945Z,1016.98
2016-07-25T08:40:03.973Z,1016.92
2016-07-25T08:41:04.003Z,1016.92
2016-07-25T08:42:04.032Z,1016.92
2016-07-25T08:43:04.062Z,1016.95
2016-07-25T08:44:04.090Z,1016.94
2016-07-25T08:45:04.120Z,1016.96
2016-07-25T08:46:04.149Z,1016.99
2016-07-25T08:47:04.179Z,1016.96
2016-07-25T08:48:04.207Z,1016.92
2016-07-25T08:49:04.237Z,1016.93
2016-07-25T08:50:04.267Z,1016.92
2016-07-25T08:51:04.296Z,1016.94
2016-07-25T08:52:04.324Z,1016.95
2016-07-25T08:53:04.354Z,1016.93
2016-07-25T08:54:04.383Z,1016.95
2016-07-25T08:55:04.412Z,1016.94
2016-07-25T08:56:04.442Z,1016.91
2016-07-25T08:57:04.476Z,1016.89
2016-07-25T08:58:04.500Z,1016.89
2016-07-25T08:59:04.529Z,1016.95
2016-07-25T09:00:04.560Z,1016.93
2016-07-25T09:01:04.590Z,1016.94
2016-07-25T09:02:04.618Z,1016.94
2016-07-25T09:03:04.653Z,1016.93
2016-07-25T09:04:04.677Z,1016.9
2016-07-25T09:05:04.712Z,1016.89
2016-07-25T09:06:04.736Z,1016.88
2016-07-25T09:07:04.778Z,1016.88
2016-07-25T09:08:04.795Z,1016.87
2016-07-25T09:09:04.822Z,1016.92
2016-07-25T09:10:04.853Z,1016.88
2016-07-25T09:11:04.882Z,1016.92
2016-07-25T09:12:04.911Z,1016.92
2016-07-25T09:13:04.940Z,1016.93
2016-07-25T09:14:04.968Z,1016.91
2016-07-25T09:15:04.998Z,1016.92
2016-07-25T09:16:05.026Z,1016.9
2016-07-25T09:17:05.055Z,1016.94
2016-07-25T09:18:05.084Z,1016.89
2016-07-25T09:19:05.112Z,1016.9
2016-07-25T09:20:05.141Z,1016.89
2016-07-25T09:21:05.170Z,1016.9
2016-07-25T09:22:05.198Z,1016.91
2016-07-25T09:23:05.228Z,1016.92
2016-07-25T09:24:05.255Z,1016.95
2016-07-25T09:25:05.284Z,1016.92
2016-07-25T09:26:05.312Z,1016.95
2016-07-25T09:27:05.341Z,1016.94
2016-07-25T09:28:05.369Z,1016.95
2016-07-25T09:29:05.398Z,1016.99
2016-07-25T09:30:05.426Z,1016.99
2016-07-25T09:31:05.457Z,1016.98
2016-07-25T09:32:05.482Z,1017
2016-07-25T09:33:05.512Z,1016.95
2016-07-25T09:34:05.539Z,1016.96
2016-07-25T09:35:05.567Z,1017
2016-07-25T09:36:05.646Z,1017.01
2016-07-25T09:37:05.625Z,1017.02
2016-07-25T09:38:05.653Z,1016.98
2016-07-25T09:39:05.681Z,1016.99
2016-07-25T09:40:05.711Z,1016.96
2016-07-25T09:41:05.740Z,1016.93
2016-07-25T09:42:05.768Z,1016.96
2016-07-25T09:43:05.803Z,1016.92
2016-07-25T09:44:05.826Z,1016.9
2016-07-25T09:45:05.855Z,1016.93
2016-07-25T09:46:05.884Z,1016.93
2016-07-25T09:47:05.913Z,1016.91
2016-07-25T09:48:05.948Z,1016.97
2016-07-25T09:49:05.971Z,1016.97
2016-07-25T09:50:06.001Z,1016.95
2016-07-25T09:51:06.030Z,1016.95
2016-07-25T09:52:06.059Z,1016.91
2016-07-25T09:53:06.088Z,1016.92
2016-07-25T09:54:06.117Z,1016.94
2016-07-25T09:55:06.147Z,1016.89
2016-07-25T09:56:06.176Z,1016.89
2016-07-25T09:57:06.210Z,1016.96
2016-07-25T09:58:06.235Z,1016.89
2016-07-25T09:59:06.265Z,1016.9
2016-07-25T10:00:06.294Z,1016.91
2016-07-25T10:01:06.324Z,1016.91
2016-07-25T10:02:06.353Z,1016.88
2016-07-25T10:03:06.382Z,1016.88
2016-07-25T10:04:06.412Z,1016.86
2016-07-25T10:05:06.442Z,1016.85
2016-07-25T10:06:06.472Z,1016.86
2016-07-25T10:07:06.500Z,1016.82
2016-07-25T10:08:06.530Z,1016.85
2016-07-25T10:09:06.560Z,1016.83
2016-07-25T10:10:06.590Z,1016.85
2016-07-25T10:11:06.619Z,1016.83
2016-07-25T10:12:06.649Z,1016.8
2016-07-25T10:13:06.677Z,1016.76
2016-07-25T10:14:06.708Z,1016.74
2016-07-25T10:15:06.737Z,1016.75
2016-07-25T10:16:06.768Z,1016.71
2016-07-25T10:17:06.796Z,1016.73
2016-07-25T10:18:06.825Z,1016.78
2016-07-25T10:19:06.856Z,1016.79
2016-07-25T10:20:06.886Z,1016.74
2016-07-25T10:21:06.916Z,1016.75
2016-07-25T10:22:06.945Z,1016.71
2016-07-25T10:23:06.981Z,1016.72
2016-07-25T10:24:07.006Z,1016.75
2016-07-25T10:25:07.035Z,1016.72
2016-07-25T10:26:07.064Z,1016.75
2016-07-25T10:27:07.095Z,1016.72
2016-07-25T10:28:07.124Z,1016.71
2016-07-25T10:29:07.154Z,1016.68
2016-07-25T10:30:07.183Z,1016.68
2016-07-25T10:31:07.214Z,1016.7
2016-07-25T10:32:07.244Z,1016.69
2016-07-25T10:33:07.273Z,1016.69
2016-07-25T10:34:07.304Z,1016.71
2016-07-25T10:35:07.333Z,1016.65
2016-07-25T10:36:07.364Z,1016.68
2016-07-25T10:37:07.394Z,1016.62
2016-07-25T10:38:07.429Z,1016.68
2016-07-25T10:39:07.454Z,1016.66
2016-07-25T10:40:07.483Z,1016.7
2016-07-25T10:41:07.513Z,1016.69
2016-07-25T10:42:07.544Z,1016.68
2016-07-25T10:43:07.574Z,1016.72
2016-07-25T10:44:07.603Z,1016.73
2016-07-25T10:45:07.633Z,1016.69
2016-07-25T10:46:07.664Z,1016.72
2016-07-25T10:47:07.693Z,1016.73
2016-07-25T10:48:07.724Z,1016.75
2016-07-25T10:49:07.754Z,1016.72
2016-07-25T10:50:07.784Z,1016.67
2016-07-25T10:51:07.813Z,1016.72
2016-07-25T10:52:07.843Z,1016.69
2016-07-25T10:53:07.874Z,1016.71
2016-07-25T10:54:07.903Z,1016.73
2016-07-25T10:55:07.933Z,1016.73
2016-07-25T10:56:07.963Z,1016.73
2016-07-25T10:57:07.993Z,1016.77
2016-07-25T10:58:08.024Z,1016.74
2016-07-25T10:59:08.053Z,1016.78
2016-07-25T11:00:08.083Z,1016.79
2016-07-25T11:01:08.114Z,1016.75
2016-07-25T11:02:08.143Z,1016.75
2016-07-25T11:03:08.175Z,1016.78
2016-07-25T11:04:08.203Z,1016.74
2016-07-25T11:05:08.234Z,1016.75
2016-07-25T11:06:08.263Z,1016.78
2016-07-25T11:07:08.293Z,1016.8
2016-07-25T11:08:08.324Z,1016.81
2016-07-25T11:09:08.354Z,1016.8
2016-07-25T11:10:08.383Z,1016.81
2016-07-25T11:11:08.413Z,1016.84
2016-07-25T11:12:08.444Z,1016.81
2016-07-25T11:13:08.474Z,1016.79
2016-07-25T11:14:08.504Z,1016.85
2016-07-25T11:15:08.535Z,1016.82
2016-07-25T11:16:08.565Z,1016.78
2016-07-25T11:17:08.593Z,1016.74
2016-07-25T11:18:08.625Z,1016.76
2016-07-25T11:19:08.656Z,1016.79
2016-07-25T11:20:08.686Z,1016.78
2016-07-25T11:21:08.717Z,1016.82
2016-07-25T11:22:08.746Z,1016.81
2016-07-25T11:23:08.777Z,1016.89
2016-07-25T11:24:08.807Z,1016.83
2016-07-25T11:25:08.837Z,1016.83
2016-07-25T11:26:08.867Z,1016.85
2016-07-25T11:27:08.897Z,1016.82
2016-07-25T11:28:08.927Z,1016.83
2016-07-25T11:29:08.958Z,1016.88
2016-07-25T11:30:08.988Z,1016.92
2016-07-25T11:31:09.017Z,1016.94
2016-07-25T11:32:09.047Z,1016.9
2016-07-25T11:33:09.078Z,1016.9
2016-07-25T11:34:09.108Z,1016.92
2016-07-25T11:35:09.138Z,1016.84
2016-07-25T11:36:10.171Z,1016.89
2016-07-25T11:37:09.199Z,1016.88
2016-07-25T11:38:09.229Z,1016.9
2016-07-25T11:39:09.259Z,1016.91
2016-07-25T11:40:09.289Z,1016.91
2016-07-25T11:41:09.320Z,1016.91
2016-07-25T11:42:09.350Z,1016.92
2016-07-25T11:43:09.380Z,1016.96
2016-07-25T11:44:09.409Z,1016.97
2016-07-25T11:45:09.441Z,1016.94
2016-07-25T11:46:09.471Z,1017
2016-07-25T11:47:09.501Z,1017
2016-07-25T11:48:09.531Z,1016.97
2016-07-25T11:49:09.560Z,1017.04
2016-07-25T11:50:09.591Z,1017.04
2016-07-25T11:51:09.621Z,1017.07
2016-07-25T11:52:09.652Z,1017.01
2016-07-25T11:53:09.681Z,1016.96
2016-07-25T11:54:09.711Z,1017.03
2016-07-25T11:55:09.741Z,1017.01
2016-07-25T11:56:09.772Z,1017.04
2016-07-25T11:57:09.801Z,1017
2016-07-25T11:58:09.832Z,1017.01
2016-07-25T11:59:09.862Z,1017.03
2016-07-25T12:00:09.893Z,1016.97
2016-07-25T12:01:09.934Z,1017.04
2016-07-25T12:02:09.952Z,1016.99
2016-07-25T12:03:09.983Z,1017.02
2016-07-25T12:04:10.012Z,1017.03
2016-07-25T12:05:10.043Z,1016.98
2016-07-25T12:06:10.072Z,1016.97
2016-07-25T12:07:10.104Z,1017.04
2016-07-25T12:08:10.133Z,1016.99
2016-07-25T12:09:10.163Z,1016.98
2016-07-25T12:10:10.194Z,1016.97
2016-07-25T12:11:10.224Z,1016.99
2016-07-25T12:12:10.253Z,1017.01
2016-07-25T12:13:10.283Z,1016.94
2016-07-25T12:14:10.313Z,1016.98
2016-07-25T12:15:10.343Z,1016.93
2016-07-25T12:16:10.374Z,1016.91
2016-07-25T12:17:10.404Z,1016.9
2016-07-25T12:18:10.433Z,1016.97
2016-07-25T12:19:10.464Z,1016.93
2016-07-25T12:20:10.494Z,1016.98
2016-07-25T12:21:10.525Z,1016.93
2016-07-25T12:22:10.554Z,1016.92
2016-07-25T12:23:10.583Z,1016.92
2016-07-25T12:24:10.614Z,1016.89
2016-07-25T12:25:10.644Z,1016.92
2016-07-25T12:26:10.673Z,1016.87
2016-07-25T12:27:10.704Z,1016.96
2016-07-25T12:28:10.734Z,1016.87
2016-07-25T12:29:10.764Z,1016.87
2016-07-25T12:30:10.792Z,1016.85
2016-07-25T12:31:10.822Z,1016.87
2016-07-25T12:32:10.852Z,1016.84
2016-07-25T12:33:10.883Z,1016.81
2016-07-25T12:34:10.911Z,1016.83
2016-07-25T12:35:10.942Z,1016.79
2016-07-25T12:36:10.971Z,1016.82
2016-07-25T12:37:11.000Z,1016.77
2016-07-25T12:38:11.031Z,1016.75
2016-07-25T12:39:11.061Z,1016.8
2016-07-25T12:40:11.092Z,1016.76
2016-07-25T12:41:11.121Z,1016.78
2016-07-25T12:42:11.150Z,1016.72
2016-07-25T12:43:11.182Z,1016.72
2016-07-25T12:44:11.211Z,1016.68
2016-07-25T12:45:11.241Z,1016.68
2016-07-25T12:46:11.271Z,1016.72
2016-07-25T12:47:11.300Z,1016.67
2016-07-25T12:48:11.332Z,1016.69
2016-07-25T12:49:11.364Z,1016.71
2016-07-25T12:50:11.390Z,1016.69
2016-07-25T12:51:11.420Z,1016.66
2016-07-25T12:52:11.450Z,1016.64
2016-07-25T12:53:11.478Z,1016.61
2016-07-25T12:54:11.508Z,1016.59
2016-07-25T12:55:11.545Z,1016.58
2016-07-25T12:56:11.569Z,1016.62
2016-07-25T12:57:11.598Z,1016.58
2016-07-25T12:58:11.629Z,1016.63
2016-07-25T12:59:11.657Z,1016.61
2016-07-25T13:00:11.687Z,1016.64
2016-07-25T13:01:11.718Z,1016.61
2016-07-25T13:02:11.748Z,1016.59
2016-07-25T13:03:11.777Z,1016.59
2016-07-25T13:04:11.812Z,1016.58
2016-07-25T13:05:11.837Z,1016.59
2016-07-25T13:06:11.866Z,1016.56
2016-07-25T13:07:11.897Z,1016.55
2016-07-25T13:08:11.926Z,1016.61
2016-07-25T13:09:11.956Z,1016.62
2016-07-25T13:10:11.985Z,1016.65
2016-07-25T13:11:12.015Z,1016.6
2016-07-25T13:12:12.045Z,1016.6
2016-07-25T13:13:12.074Z,1016.58
2016-07-25T13:14:12.103Z,1016.56
2016-07-25T13:15:12.134Z,1016.64
2016-07-25T13:16:12.163Z,1016.62
2016-07-25T13:17:12.192Z,1016.63
2016-07-25T13:18:12.221Z,1016.66
2016-07-25T13:19:12.251Z,1016.64
2016-07-25T13:20:12.281Z,1016.67
2016-07-25T13:21:12.310Z,1016.6
2016-07-25T13:22:12.340Z,1016.6
2016-07-25T13:23:12.369Z,1016.6
2016-07-25T13:24:12.400Z,1016.57
2016-07-25T13:25:12.429Z,1016.62
2016-07-25T13:26:12.459Z,1016.61
2016-07-25T13:27:12.489Z,1016.62
2016-07-25T13:28:12.519Z,1016.61
2016-07-25T13:29:12.548Z,1016.61
2016-07-25T13:30:12.578Z,1016.61
2016-07-25T13:31:12.609Z,1016.54
2016-07-25T13:32:12.637Z,1016.56
2016-07-25T13:33:12.668Z,1016.55
2016-07-25T13:34:12.697Z,1016.56
2016-07-25T13:35:12.728Z,1016.55
2016-07-25T13:36:12.757Z,1016.55
2016-07-25T13:37:12.788Z,1016.55
2016-07-25T13:38:12.817Z,1016.59
2016-07-25T13:39:12.847Z,1016.54
2016-07-25T13:40:12.878Z,1016.5
2016-07-25T13:41:12.907Z,1016.5
2016-07-25T13:42:12.938Z,1016.51
2016-07-25T13:43:12.967Z,1016.48
2016-07-25T13:44:12.997Z,1016.49
2016-07-25T13:45:13.027Z,1016.5
2016-07-25T13:46:13.057Z,1016.52
2016-07-25T13:47:13.088Z,1016.51
2016-07-25T13:48:13.118Z,1016.5
2016-07-25T13:49:13.149Z,1016.52
2016-07-25T13:50:13.177Z,1016.47
2016-07-25T13:51:13.208Z,1016.42
2016-07-25T13:52:13.239Z,1016.46
2016-07-25T13:53:13.269Z,1016.47
2016-07-25T13:54:13.299Z,1016.53
2016-07-25T13:55:13.330Z,1016.45
2016-07-25T13:56:13.359Z,1016.48
2016-07-25T13:57:13.390Z,1016.47
2016-07-25T13:58:13.419Z,1016.5
2016-07-25T13:59:13.449Z,1016.49
2016-07-25T14:00:13.479Z,1016.48
2016-07-25T14:01:13.509Z,1016.51
2016-07-25T14:02:13.540Z,1016.49
2016-07-25T14:03:13.569Z,1016.45
2016-07-25T14:04:13.598Z,1016.49
2016-07-25T14:05:13.628Z,1016.47
2016-07-25T14:06:13.664Z,1016.49
2016-07-25T14:07:13.688Z,1016.47
2016-07-25T14:08:13.718Z,1016.5
2016-07-25T14:09:13.747Z,1016.49
2016-07-25T14:10:13.777Z,1016.49
2016-07-25T14:11:13.807Z,1016.49
2016-07-25T14:12:13.837Z,1016.48
2016-07-25T14:13:13.867Z,1016.51
2016-07-25T14:14:13.898Z,1016.5
2016-07-25T14:15:13.928Z,1016.46
2016-07-25T14:16:13.956Z,1016.44
2016-07-25T14:17:13.987Z,1016.45
2016-07-25T14:18:14.017Z,1016.41
2016-07-25T14:19:14.048Z,1016.44
2016-07-25T14:20:14.078Z,1016.43
2016-07-25T14:21:14.108Z,1016.45
2016-07-25T14:22:14.149Z,1016.46
2016-07-25T14:23:14.168Z,1016.45
2016-07-25T14:24:14.199Z,1016.39
2016-07-25T14:25:14.230Z,1016.4
2016-07-25T14:26:14.259Z,1016.37
2016-07-25T14:27:14.288Z,1016.38
2016-07-25T14:28:14.319Z,1016.4
2016-07-25T14:29:14.350Z,1016.39
2016-07-25T14:30:14.380Z,1016.38
2016-07-25T14:31:14.411Z,1016.38
2016-07-25T14:32:14.441Z,1016.36
2016-07-25T14:33:14.472Z,1016.35
2016-07-25T14:34:14.500Z,1016.32
2016-07-25T14:35:14.531Z,1016.28
2016-07-25T14:36:14.562Z,1016.27
2016-07-25T14:37:14.596Z,1016.34
2016-07-25T14:38:14.622Z,1016.3
2016-07-25T14:39:14.652Z,1016.31
2016-07-25T14:40:14.683Z,1016.27
2016-07-25T14:41:14.712Z,1016.31
2016-07-25T14:42:14.744Z,1016.33
2016-07-25T14:43:14.773Z,1016.32
2016-07-25T14:44:14.805Z,1016.33
2016-07-25T14:45:14.833Z,1016.27
2016-07-25T14:46:14.865Z,1016.31
2016-07-25T14:47:14.894Z,1016.31
2016-07-25T14:48:14.925Z,1016.29
2016-07-25T14:49:14.954Z,1016.28
2016-07-25T14:50:14.985Z,1016.25
2016-07-25T14:51:15.015Z,1016.27
2016-07-25T14:52:15.046Z,1016.3
2016-07-25T14:53:15.076Z,1016.3
2016-07-25T14:54:15.107Z,1016.28
2016-07-25T14:55:15.137Z,1016.35
2016-07-25T14:56:15.166Z,1016.32
2016-07-25T14:57:15.197Z,1016.35
2016-07-25T14:58:15.227Z,1016.36
2016-07-25T14:59:15.258Z,1016.34
2016-07-25T15:00:15.287Z,1016.4
2016-07-25T15:01:15.319Z,1016.37
2016-07-25T15:02:15.349Z,1016.4
2016-07-25T15:03:15.379Z,1016.38
2016-07-25T15:04:15.410Z,1016.35
2016-07-25T15:05:15.440Z,1016.39
2016-07-25T15:06:15.470Z,1016.36
2016-07-25T15:07:15.500Z,1016.39
2016-07-25T15:08:15.530Z,1016.43
2016-07-25T15:09:15.562Z,1016.41
2016-07-25T15:10:15.592Z,1016.42
2016-07-25T15:11:15.621Z,1016.4
2016-07-25T15:12:15.652Z,1016.39
2016-07-25T15:13:15.683Z,1016.38
2016-07-25T15:14:15.712Z,1016.35
2016-07-25T15:15:15.742Z,1016.37
2016-07-25T15:16:15.774Z,1016.38
2016-07-25T15:17:15.804Z,1016.38
2016-07-25T15:18:15.834Z,1016.4
2016-07-25T15:19:15.864Z,1016.38
2016-07-25T15:20:15.895Z,1016.39
2016-07-25T15:21:15.926Z,1016.39
2016-07-25T15:22:15.955Z,1016.44
2016-07-25T15:23:15.986Z,1016.42
2016-07-25T15:24:16.016Z,1016.39
2016-07-25T15:25:16.046Z,1016.37
2016-07-25T15:26:16.076Z,1016.37
2016-07-25T15:27:16.107Z,1016.34
2016-07-25T15:28:16.138Z,1016.37
2016-07-25T15:29:16.167Z,1016.29
2016-07-25T15:30:16.198Z,1016.31
2016-07-25T15:31:16.228Z,1016.35
2016-07-25T15:32:16.260Z,1016.34
2016-07-25T15:33:16.289Z,1016.35
2016-07-25T15:34:16.320Z,1016.37
2016-07-25T15:35:16.349Z,1016.37
2016-07-25T15:36:16.380Z,1016.39
2016-07-25T15:37:16.410Z,1016.35
2016-07-25T15:38:16.441Z,1016.34
2016-07-25T15:39:16.472Z,1016.34
2016-07-25T15:40:16.501Z,1016.36
2016-07-25T15:41:16.531Z,1016.38
2016-07-25T15:42:16.563Z,1016.34
2016-07-25T15:43:16.593Z,1016.32
2016-07-25T15:44:16.623Z,1016.37
2016-07-25T15:45:16.653Z,1016.39
2016-07-25T15:46:16.684Z,1016.39
2016-07-25T15:48:16.743Z,1016.29
2016-07-25T15:49:16.774Z,1016.34
2016-07-25T15:50:16.807Z,1016.32
2016-07-25T15:51:16.835Z,1016.28
2016-07-25T15:52:16.865Z,1016.3
2016-07-25T15:53:16.897Z,1016.31
2016-07-25T15:54:16.927Z,1016.3
2016-07-25T15:55:16.957Z,1016.34
2016-07-25T15:56:16.987Z,1016.33
2016-07-25T15:57:17.017Z,1016.31
2016-07-25T15:58:17.047Z,1016.32
2016-07-25T15:59:17.078Z,1016.31
2016-07-25T16:00:17.109Z,1016.32
2016-07-25T16:01:17.139Z,1016.3
2016-07-25T16:03:17.199Z,1016.27
2016-07-25T16:04:17.230Z,1016.3
2016-07-25T16:05:17.261Z,1016.3
2016-07-25T16:06:17.291Z,1016.27
2016-07-25T16:07:17.322Z,1016.27
2016-07-25T16:08:17.352Z,1016.26
2016-07-25T16:09:17.382Z,1016.31
2016-07-25T16:10:17.413Z,1016.28
2016-07-25T16:11:17.443Z,1016.29
2016-07-25T16:12:17.474Z,1016.25
2016-07-25T16:13:17.503Z,1016.24
2016-07-25T16:14:17.535Z,1016.26
2016-07-25T16:15:17.564Z,1016.3
2016-07-25T16:16:17.593Z,1016.28
2016-07-25T16:18:17.654Z,1016.3
2016-07-25T16:19:17.685Z,1016.26
2016-07-25T16:20:17.715Z,1016.29
2016-07-25T16:21:17.745Z,1016.24
2016-07-25T16:22:17.775Z,1016.27
2016-07-25T16:23:17.806Z,1016.28
2016-07-25T16:24:17.835Z,1016.27
2016-07-25T16:25:17.866Z,1016.23
2016-07-25T16:26:17.897Z,1016.21
2016-07-25T16:27:17.926Z,1016.2
2016-07-25T16:28:17.957Z,1016.2
2016-07-25T16:29:17.987Z,1016.19
2016-07-25T16:30:18.017Z,1016.19
2016-07-25T16:31:18.047Z,1016.18
2016-07-25T16:33:18.107Z,1016.2
2016-07-25T16:34:18.137Z,1016.21
2016-07-25T16:35:18.171Z,1016.21
2016-07-25T16:36:18.198Z,1016.16
2016-07-25T16:37:18.229Z,1016.17
2016-07-25T16:38:18.257Z,1016.21
2016-07-25T16:39:18.288Z,1016.17
2016-07-25T16:40:18.318Z,1016.19
2016-07-25T16:41:18.349Z,1016.2
2016-07-25T16:42:18.378Z,1016.21
2016-07-25T16:43:18.409Z,1016.21
2016-07-25T16:44:18.440Z,1016.23
2016-07-25T16:45:18.470Z,1016.21
2016-07-25T16:46:18.500Z,1016.2
2016-07-25T16:48:18.560Z,1016.27
2016-07-25T16:49:18.589Z,1016.27
2016-07-25T16:50:18.619Z,1016.28
2016-07-25T16:51:18.650Z,1016.24
2016-07-25T16:52:18.681Z,1016.23
2016-07-25T16:53:18.710Z,1016.21
2016-07-25T16:54:18.741Z,1016.23
2016-07-25T16:55:18.770Z,1016.24
2016-07-25T16:56:18.802Z,1016.31
2016-07-25T16:57:18.830Z,1016.28
2016-07-25T16:58:18.861Z,1016.25
2016-07-25T16:59:18.890Z,1016.27
2016-07-25T17:00:18.920Z,1016.26
2016-07-25T17:01:18.951Z,1016.27
2016-07-25T17:03:19.011Z,1016.32
2016-07-25T17:04:19.041Z,1016.32
2016-07-25T17:05:19.070Z,1016.32
2016-07-25T17:06:19.101Z,1016.32
2016-07-25T17:07:19.131Z,1016.29
2016-07-25T17:08:19.160Z,1016.31
2016-07-25T17:09:19.190Z,1016.3
2016-07-25T17:10:19.221Z,1016.31
2016-07-25T17:11:19.250Z,1016.28
2016-07-25T17:12:19.280Z,1016.29
2016-07-25T17:13:19.310Z,1016.27
2016-07-25T17:14:19.341Z,1016.27
2016-07-25T17:15:19.370Z,1016.25
2016-07-25T17:16:19.400Z,1016.25
2016-07-25T17:18:19.461Z,1016.25
2016-07-25T17:19:19.489Z,1016.26
2016-07-25T17:20:19.520Z,1016.27
2016-07-25T17:21:19.551Z,1016.25
2016-07-25T17:22:19.579Z,1016.28
2016-07-25T17:23:19.610Z,1016.31
2016-07-25T17:24:19.639Z,1016.3
2016-07-25T17:25:19.670Z,1016.3
2016-07-25T17:26:19.699Z,1016.29
2016-07-25T17:27:19.752Z,1016.31
2016-07-25T17:28:19.760Z,1016.28
2016-07-25T17:29:19.790Z,1016.28
2016-07-25T17:30:19.819Z,1016.25
2016-07-25T17:31:19.849Z,1016.27
2016-07-25T17:33:19.908Z,1016.32
2016-07-25T17:34:19.938Z,1016.32
2016-07-25T17:35:19.968Z,1016.3
2016-07-25T17:36:19.999Z,1016.31
2016-07-25T17:37:20.029Z,1016.31
2016-07-25T17:38:20.058Z,1016.29
2016-07-25T17:39:20.088Z,1016.29
2016-07-25T17:40:20.118Z,1016.3
2016-07-25T17:41:20.149Z,1016.34
2016-07-25T17:42:20.184Z,1016.34
2016-07-25T17:43:20.209Z,1016.36
2016-07-25T17:44:20.238Z,1016.37
2016-07-25T17:45:20.268Z,1016.38
2016-07-25T17:46:20.297Z,1016.41
2016-07-25T17:48:20.357Z,1016.4
2016-07-25T17:49:20.387Z,1016.41
2016-07-25T17:50:20.417Z,1016.39
2016-07-25T17:51:20.446Z,1016.37
2016-07-25T17:52:20.476Z,1016.41
2016-07-25T17:53:20.506Z,1016.38
2016-07-25T17:54:20.536Z,1016.37
2016-07-25T17:55:20.566Z,1016.37
2016-07-25T17:56:20.595Z,1016.35
2016-07-25T17:57:20.625Z,1016.36
2016-07-25T17:58:20.655Z,1016.36
2016-07-25T17:59:20.685Z,1016.3
2016-07-25T18:00:20.714Z,1016.31
2016-07-25T18:01:20.743Z,1016.32
2016-07-25T18:03:20.805Z,1016.3
2016-07-25T18:04:20.833Z,1016.27
2016-07-25T18:05:20.862Z,1016.28
2016-07-25T18:06:20.892Z,1016.26
2016-07-25T18:07:20.923Z,1016.29
2016-07-25T18:08:20.952Z,1016.32
2016-07-25T18:09:20.982Z,1016.33
2016-07-25T18:10:21.011Z,1016.37
2016-07-25T18:11:21.041Z,1016.36
2016-07-25T18:12:21.072Z,1016.34
2016-07-25T18:13:21.101Z,1016.35
2016-07-25T18:14:21.130Z,1016.34
2016-07-25T18:15:21.161Z,1016.29
2016-07-25T18:16:21.191Z,1016.32
2016-07-25T18:18:21.250Z,1016.32
2016-07-25T18:19:21.279Z,1016.29
2016-07-25T18:20:21.309Z,1016.31
2016-07-25T18:21:21.338Z,1016.32
2016-07-25T18:22:21.368Z,1016.3
2016-07-25T18:23:21.398Z,1016.33
2016-07-25T18:24:21.427Z,1016.32
2016-07-25T18:25:21.457Z,1016.3
2016-07-25T18:26:21.487Z,1016.33
2016-07-25T18:27:21.517Z,1016.34
2016-07-25T18:28:21.546Z,1016.37
2016-07-25T18:29:21.576Z,1016.36
2016-07-25T18:30:21.606Z,1016.34
2016-07-25T18:31:21.636Z,1016.33
2016-07-25T18:33:21.694Z,1016.41
2016-07-25T18:34:21.724Z,1016.4
2016-07-25T18:35:21.753Z,1016.44
2016-07-25T18:36:21.782Z,1016.46
2016-07-25T18:37:21.812Z,1016.45
2016-07-25T18:38:21.843Z,1016.43
2016-07-25T18:39:21.871Z,1016.47
2016-07-25T18:40:21.901Z,1016.45
2016-07-25T18:41:21.931Z,1016.48
2016-07-25T18:42:21.961Z,1016.5
2016-07-25T18:43:21.990Z,1016.48
2016-07-25T18:44:22.019Z,1016.48
2016-07-25T18:45:22.049Z,1016.46
2016-07-25T18:46:22.078Z,1016.46
2016-07-25T18:48:22.137Z,1016.47
2016-07-25T18:49:22.166Z,1016.5
2016-07-25T18:50:22.203Z,1016.46
2016-07-25T18:51:22.225Z,1016.46
2016-07-25T18:52:22.255Z,1016.5
2016-07-25T18:53:22.286Z,1016.51
2016-07-25T18:54:22.313Z,1016.52
2016-07-25T18:55:22.344Z,1016.5
2016-07-25T18:56:22.373Z,1016.52
2016-07-25T18:57:22.403Z,1016.54
2016-07-25T18:58:22.432Z,1016.5
2016-07-25T18:59:22.462Z,1016.5
2016-07-25T19:00:22.492Z,1016.49